createdAt,value
2018-11-10T00:00:25.177Z,19.67
2018-11-10T00:05:28.984Z,19.53
2018-11-10T00:10:32.803Z,18.87
2018-11-10T00:15:36.633Z,17.93
2018-11-10T00:20:40.693Z,16.67
2018-11-10T00:25:44.525Z,14.75
2018-11-10T00:30:48.373Z,11.33
2018-11-10T00:35:52.185Z,11.17
2018-11-10T00:40:56.271Z,11.27
2018-11-10T00:46:00.403Z,10.53
2018-11-10T00:51:04.470Z,10.00
2018-11-10T00:56:08.377Z,10.03
2018-11-10T01:01:12.466Z,9.10
2018-11-10T01:06:16.318Z,9.97
2018-11-10T01:11:20.368Z,9.07
2018-11-10T01:16:24.169Z,8.80
2018-11-10T01:21:28.222Z,8.57
2018-11-10T01:26:32.721Z,8.77
2018-11-10T01:31:36.573Z,8.83
2018-11-10T01:36:40.414Z,8.63
2018-11-10T01:41:44.499Z,8.30
2018-11-10T01:46:48.324Z,8.53
2018-11-10T01:51:52.153Z,8.03
2018-11-10T01:56:55.998Z,8.07
2018-11-10T02:02:00.053Z,7.83
2018-11-10T02:07:03.889Z,7.30
2018-11-10T02:12:07.701Z,7.33
2018-11-10T02:17:11.512Z,6.90
2018-11-10T02:22:15.618Z,6.40
2018-11-10T02:27:21.337Z,9.07
2018-11-10T02:32:25.138Z,10.50
2018-11-10T02:37:29.289Z,10.30
2018-11-10T02:42:33.210Z,11.03
2018-11-10T02:47:37.028Z,10.73
2018-11-10T02:52:40.922Z,11.20
2018-11-10T02:57:45.034Z,10.73
2018-11-10T03:02:48.869Z,11.60
2018-11-10T03:07:52.705Z,11.43
2018-11-10T03:12:56.530Z,10.27
2018-11-10T03:18:00.385Z,10.33
2018-11-10T03:23:04.233Z,9.60
2018-11-10T03:28:08.056Z,9.60
2018-11-10T03:33:12.167Z,9.50
2018-11-10T03:38:16.248Z,9.10
2018-11-10T03:43:20.086Z,9.63
2018-11-10T03:48:23.901Z,8.97
2018-11-10T03:53:27.720Z,9.73
2018-11-10T03:58:31.525Z,9.53
2018-11-10T04:03:35.326Z,9.33
2018-11-10T04:08:39.149Z,10.67
2018-11-10T04:13:42.980Z,11.03
2018-11-10T04:18:46.892Z,11.50
2018-11-10T04:23:50.738Z,10.93
2018-11-10T04:28:54.594Z,11.67
2018-11-10T04:33:58.659Z,11.37
2018-11-10T04:39:03.458Z,11.27
2018-11-10T04:44:07.800Z,10.57
2018-11-10T04:49:11.638Z,10.90
2018-11-10T04:54:15.508Z,10.97
2018-11-10T04:59:19.579Z,11.57
2018-11-10T05:04:23.439Z,12.03
2018-11-10T05:09:27.517Z,10.93
2018-11-10T05:14:31.970Z,12.03
2018-11-10T05:19:36.046Z,12.47
2018-11-10T05:24:40.131Z,12.67
2018-11-10T05:29:43.987Z,12.37
2018-11-10T05:34:47.905Z,13.13
2018-11-10T05:39:51.762Z,12.53
2018-11-10T05:44:55.594Z,12.80
2018-11-10T05:49:59.452Z,13.23
2018-11-10T05:55:03.325Z,11.97
2018-11-10T06:00:09.146Z,12.60
2018-11-10T06:05:13.222Z,12.00
2018-11-10T06:10:17.469Z,12.37
2018-11-10T06:15:21.346Z,11.37
2018-11-10T06:20:25.174Z,11.80
2018-11-10T06:25:29.010Z,11.60
2018-11-10T06:30:32.883Z,11.17
2018-11-10T06:35:36.715Z,11.57
2018-11-10T06:40:41.495Z,10.80
2018-11-10T06:45:45.427Z,10.00
2018-11-10T06:50:49.253Z,9.33
2018-11-10T06:55:53.146Z,8.70
2018-11-10T07:00:56.989Z,5.50
2018-11-10T07:06:00.841Z,5.78
2018-11-10T07:11:04.705Z,5.90
2018-11-10T07:16:08.512Z,5.17
2018-11-10T07:21:12.327Z,4.87
2018-11-10T07:26:16.710Z,4.33
2018-11-10T07:31:20.524Z,3.70
2018-11-10T07:36:24.353Z,3.70
2018-11-10T07:41:28.154Z,3.27
2018-11-10T07:46:32.383Z,3.47
2018-11-10T07:51:36.213Z,3.07
2018-11-10T07:56:40.057Z,2.70
2018-11-10T08:01:43.886Z,2.73
2018-11-10T08:06:48.331Z,2.30
2018-11-10T08:11:52.171Z,2.30
2018-11-10T08:16:56.292Z,2.47
2018-11-10T08:22:00.110Z,2.30
2018-11-10T08:27:03.918Z,2.40
2018-11-10T08:32:07.742Z,2.70
2018-11-10T08:37:11.567Z,2.57
2018-11-10T08:42:15.640Z,2.30
2018-11-10T08:47:19.698Z,2.20
2018-11-10T08:52:23.761Z,2.47
2018-11-10T08:57:27.883Z,2.50
2018-11-10T09:02:31.645Z,2.07
2018-11-10T09:07:35.476Z,2.57
2018-11-10T09:12:39.322Z,2.57
2018-11-10T09:17:43.359Z,2.73
2018-11-10T09:22:47.481Z,2.77
2018-11-10T09:27:51.302Z,2.53
2018-11-10T09:32:55.109Z,2.77
2018-11-10T09:37:58.913Z,2.70
2018-11-10T09:43:02.793Z,2.50
2018-11-10T09:48:06.637Z,2.33
2018-11-10T09:53:10.446Z,2.50
2018-11-10T09:58:14.285Z,2.63
2018-11-10T10:03:18.347Z,2.60
2018-11-10T10:08:22.166Z,2.60
2018-11-10T10:13:26.103Z,2.73
2018-11-10T10:18:29.989Z,3.10
2018-11-10T10:23:34.054Z,3.20
2018-11-10T10:28:38.031Z,3.17
2018-11-10T10:33:41.724Z,3.10
2018-11-10T10:38:45.571Z,3.17
2018-11-10T10:43:49.634Z,2.80
2018-11-10T10:48:53.834Z,2.93
2018-11-10T10:53:57.772Z,2.90
2018-11-10T10:59:01.953Z,3.10
2018-11-10T11:04:11.301Z,2.87
2018-11-10T11:09:15.227Z,2.80
2018-11-10T11:14:19.041Z,2.50
2018-11-10T11:19:22.857Z,2.50
2018-11-10T11:24:26.674Z,2.40
2018-11-10T11:29:30.767Z,2.10
2018-11-10T11:34:34.665Z,2.43
2018-11-10T11:39:38.476Z,2.20
2018-11-10T11:44:42.328Z,2.50
2018-11-10T11:49:46.489Z,1.40
2018-11-10T11:54:50.256Z,1.50
2018-11-10T11:59:54.407Z,1.60
2018-11-10T12:04:58.226Z,2.00
2018-11-10T12:10:02.115Z,2.10
2018-11-10T12:15:06.661Z,2.40
2018-11-10T12:20:11.957Z,2.50
2018-11-10T12:25:15.766Z,2.40
2018-11-10T12:30:19.598Z,2.20
2018-11-10T12:35:23.405Z,2.10
2018-11-10T12:40:27.229Z,2.20
2018-11-10T12:45:31.047Z,2.30
2018-11-10T12:50:35.105Z,2.40
2018-11-10T12:55:38.927Z,2.20
2018-11-10T13:00:42.738Z,2.50
2018-11-10T13:10:57.065Z,2.47
2018-11-10T13:16:00.818Z,3.60
2018-11-10T13:21:05.226Z,2.20
2018-11-10T13:26:09.201Z,2.60
2018-11-10T13:31:13.063Z,2.50
2018-11-10T13:36:16.871Z,2.40
2018-11-10T13:41:20.790Z,2.20
2018-11-10T13:46:24.626Z,2.20
2018-11-10T13:51:29.117Z,2.60
2018-11-10T13:56:33.166Z,2.20
2018-11-10T14:01:37.014Z,2.20
2018-11-10T14:06:40.854Z,2.00
2018-11-10T14:11:44.657Z,1.80
2018-11-10T14:16:49.436Z,1.80
2018-11-10T14:21:53.260Z,1.70
2018-11-10T14:26:57.337Z,1.70
2018-11-10T14:32:01.157Z,1.53
2018-11-10T14:37:05.404Z,1.50
2018-11-10T14:42:09.230Z,1.30
2018-11-10T14:47:13.054Z,1.10
2018-11-10T14:52:17.278Z,1.50
2018-11-10T14:57:21.074Z,1.30
2018-11-10T15:02:24.990Z,1.97
2018-11-10T15:07:28.827Z,1.20
2018-11-10T15:12:32.686Z,1.23
2018-11-10T15:17:37.483Z,1.20
2018-11-10T15:22:41.305Z,1.02
2018-11-10T15:27:45.152Z,1.10
2018-11-10T15:32:49.673Z,1.10
2018-11-10T15:37:54.174Z,1.00
2018-11-10T15:42:57.998Z,1.40
2018-11-10T15:48:01.856Z,1.23
2018-11-10T15:53:06.410Z,1.40
2018-11-10T15:58:10.573Z,1.65
2018-11-10T16:03:14.422Z,1.17
2018-11-10T16:08:18.826Z,1.10
2018-11-10T16:13:22.680Z,1.20
2018-11-10T16:18:26.539Z,1.30
2018-11-10T16:23:30.371Z,1.10
2018-11-10T16:28:34.267Z,1.40
2018-11-10T16:33:38.554Z,1.30
2018-11-10T16:38:42.502Z,1.37
2018-11-10T16:43:46.378Z,1.27
2018-11-10T16:48:50.470Z,1.10
2018-11-10T16:53:54.414Z,1.20
2018-11-10T16:58:58.325Z,1.40
2018-11-10T17:04:02.982Z,1.60
2018-11-10T17:09:10.711Z,1.82
2018-11-10T17:14:14.599Z,1.70
2018-11-10T17:19:18.703Z,1.70
2018-11-10T17:24:22.580Z,1.70
2018-11-10T17:29:26.410Z,1.93
2018-11-10T17:34:30.280Z,1.60
2018-11-10T17:39:34.466Z,2.10
2018-11-10T17:44:38.251Z,1.47
2018-11-10T17:49:42.108Z,1.80
2018-11-10T17:54:46.071Z,2.10
2018-11-10T17:59:50.107Z,2.30
2018-11-10T18:04:54.796Z,3.30
2018-11-10T18:09:58.698Z,4.30
2018-11-10T18:15:02.642Z,4.20
2018-11-10T18:20:07.951Z,4.47
2018-11-10T18:25:11.845Z,3.90
2018-11-10T18:30:15.986Z,3.80
2018-11-10T18:35:20.108Z,3.20
2018-11-10T18:40:23.951Z,2.50
2018-11-10T18:45:27.786Z,2.60
2018-11-10T18:50:31.670Z,2.50
2018-11-10T18:55:35.758Z,2.70
2018-11-10T19:00:39.593Z,2.80
2018-11-10T19:05:43.562Z,3.00
2018-11-10T19:10:47.427Z,3.73
2018-11-10T19:15:51.601Z,3.07
2018-11-10T19:20:55.478Z,3.60
2018-11-10T19:25:59.285Z,3.50
2018-11-10T19:31:03.119Z,3.60
2018-11-10T19:36:07.290Z,3.57
2018-11-10T19:41:11.132Z,3.70
2018-11-10T19:46:15.050Z,3.53
2018-11-10T19:51:19.048Z,3.40
2018-11-10T19:56:22.750Z,3.23
2018-11-10T20:01:26.650Z,3.03
2018-11-10T20:06:30.979Z,3.00
2018-11-10T20:11:34.794Z,2.80
2018-11-10T20:16:38.961Z,2.77
2018-11-10T20:21:42.927Z,2.70
2018-11-10T20:26:46.785Z,2.50
2018-11-10T20:31:50.619Z,2.37
2018-11-10T20:36:54.462Z,2.40
2018-11-10T20:41:58.580Z,2.70
2018-11-10T20:47:02.434Z,3.00
2018-11-10T20:52:06.673Z,2.40
2018-11-10T20:57:10.694Z,2.30
2018-11-10T21:02:14.551Z,2.70
2018-11-10T21:07:18.434Z,2.20
2018-11-10T21:12:22.282Z,2.30
2018-11-10T21:17:26.098Z,2.40
2018-11-10T21:22:30.187Z,2.23
2018-11-10T21:27:34.047Z,2.37
2018-11-10T21:32:37.862Z,2.20
2018-11-10T21:37:41.717Z,1.90
2018-11-10T21:42:45.929Z,2.20
2018-11-10T21:47:50.062Z,2.10
2018-11-10T21:52:53.906Z,1.90
2018-11-10T21:57:57.738Z,2.10
2018-11-10T22:03:03.255Z,1.90
2018-11-10T22:08:07.075Z,1.90
2018-11-10T22:13:10.906Z,1.70
2018-11-10T22:18:15.020Z,1.70
2018-11-10T22:23:18.838Z,1.70
2018-11-10T22:28:22.658Z,1.60
2018-11-10T22:33:26.499Z,1.50
2018-11-10T22:38:30.587Z,1.40
2018-11-10T22:43:34.663Z,1.60
2018-11-10T22:48:38.513Z,1.60
2018-11-10T22:53:42.372Z,1.60
2018-11-10T22:58:46.231Z,1.60
2018-11-10T23:03:50.474Z,1.70
2018-11-10T23:08:54.519Z,1.70
2018-11-10T23:13:58.349Z,1.60
2018-11-10T23:19:02.171Z,1.40
2018-11-10T23:24:06.316Z,1.83
2018-11-10T23:29:10.146Z,1.60
2018-11-10T23:34:13.969Z,1.30
2018-11-10T23:39:18.039Z,1.50
2018-11-10T23:44:21.871Z,1.53
2018-11-10T23:49:25.939Z,1.70
2018-11-10T23:54:30.014Z,1.60
2018-11-10T23:59:33.840Z,1.57
